sensor_id;sensor_type;location;lat;lon;timestamp;pressure;altitude;pressure_sealevel;temperature;humidity
55217;BME280;41086;46.736;15.666;2023-02-28T00:00:37;99429.09;;;-1.53;100.00
55217;BME280;41086;46.736;15.666;2023-02-28T00:03:04;99419.56;;;-1.58;100.00
55217;BME280;41086;46.736;15.666;2023-02-28T00:05:32;99410.97;;;-1.64;100.00
55217;BME280;41086;46.736;15.666;2023-02-28T00:07:59;99425.66;;;-1.57;100.00
55217;BME280;41086;46.736;15.666;2023-02-28T00:10:28;99440.38;;;-1.56;100.00
55217;BME280;41086;46.736;15.666;2023-02-28T00:13:00;99441.22;;;-1.52;100.00
55217;BME280;41086;46.736;15.666;2023-02-28T00:15:27;99437.72;;;-1.47;100.00
55217;BME280;41086;46.736;15.666;2023-02-28T00:17:54;99442.06;;;-1.46;100.00
55217;BME280;41086;46.736;15.666;2023-02-28T00:20:21;99440.34;;;-1.44;100.00
55217;BME280;41086;46.736;15.666;2023-02-28T00:22:50;99450.69;;;-1.38;100.00
55217;BME280;41086;46.736;15.666;2023-02-28T00:25:20;99433.34;;;-1.39;100.00
55217;BME280;41086;46.736;15.666;2023-02-28T00:27:47;99447.19;;;-1.30;100.00
55217;BME280;41086;46.736;15.666;2023-02-28T00:30:17;99450.63;;;-1.25;100.00
55217;BME280;41086;46.736;15.666;2023-02-28T00:32:45;99435.88;;;-1.23;100.00
55217;BME280;41086;46.736;15.666;2023-02-28T00:35:12;99437.59;;;-1.22;100.00
55217;BME280;41086;46.736;15.666;2023-02-28T00:37:40;99428.97;;;-1.29;100.00
55217;BME280;41086;46.736;15.666;2023-02-28T00:40:08;99441.09;;;-1.23;100.00
55217;BME280;41086;46.736;15.666;2023-02-28T00:42:35;99435.91;;;-1.31;100.00
55217;BME280;41086;46.736;15.666;2023-02-28T00:45:03;99436.78;;;-1.29;100.00
55217;BME280;41086;46.736;15.666;2023-02-28T00:47:32;99448.91;;;-1.31;100.00
55217;BME280;41086;46.736;15.666;2023-02-28T00:50:00;99438.53;;;-1.32;100.00
55217;BME280;41086;46.736;15.666;2023-02-28T00:52:27;99443.69;;;-1.23;100.00
55217;BME280;41086;46.736;15.666;2023-02-28T00:54:54;99436.75;;;-1.24;100.00
55217;BME280;41086;46.736;15.666;2023-02-28T00:57:21;99443.63;;;-1.17;100.00
55217;BME280;41086;46.736;15.666;2023-02-28T00:59:47;99438.44;;;-1.16;100.00
55217;BME280;41086;46.736;15.666;2023-02-28T01:02:14;99438.44;;;-1.17;100.00
55217;BME280;41086;46.736;15.666;2023-02-28T01:04:41;99437.59;;;-1.18;100.00
55217;BME280;41086;46.736;15.666;2023-02-28T01:07:08;99430.63;;;-1.17;100.00
55217;BME280;41086;46.736;15.666;2023-02-28T01:09:35;99432.41;;;-1.19;100.00
55217;BME280;41086;46.736;15.666;2023-02-28T01:12:02;99432.41;;;-1.22;100.00
55217;BME280;41086;46.736;15.666;2023-02-28T01:14:28;99434.97;;;-1.16;100.00
55217;BME280;41086;46.736;15.666;2023-02-28T01:16:55;99431.53;;;-1.18;100.00
55217;BME280;41086;46.736;15.666;2023-02-28T01:19:24;99441.06;;;-1.19;100.00
55217;BME280;41086;46.736;15.666;2023-02-28T01:21:51;99432.41;;;-1.24;100.00
55217;BME280;41086;46.736;15.666;2023-02-28T01:24:18;99432.44;;;-1.27;100.00
55217;BME280;41086;46.736;15.666;2023-02-28T01:26:44;99432.44;;;-1.27;100.00
55217;BME280;41086;46.736;15.666;2023-02-28T01:29:11;99442.81;;;-1.19;100.00
55217;BME280;41086;46.736;15.666;2023-02-28T01:31:38;99425.50;;;-1.28;100.00
55217;BME280;41086;46.736;15.666;2023-02-28T01:34:07;99438.47;;;-1.20;100.00
55217;BME280;41086;46.736;15.666;2023-02-28T01:36:34;99441.94;;;-1.21;100.00
55217;BME280;41086;46.736;15.666;2023-02-28T01:39:00;99440.22;;;-1.24;100.00
55217;BME280;41086;46.736;15.666;2023-02-28T01:41:32;99433.28;;;-1.23;100.00
55217;BME280;41086;46.736;15.666;2023-02-28T01:44:55;99413.44;;;-1.41;100.00
55217;BME280;41086;46.736;15.666;2023-02-28T01:46:55;99427.25;;;-1.33;100.00
55217;BME280;41086;46.736;15.666;2023-02-28T01:49:21;99417.78;;;-1.42;100.00
55217;BME280;41086;46.736;15.666;2023-02-28T01:51:50;99431.63;;;-1.37;100.00
55217;BME280;41086;46.736;15.666;2023-02-28T01:54:25;99424.69;;;-1.38;100.00
55217;BME280;41086;46.736;15.666;2023-02-28T01:57:04;99435.13;;;-1.41;100.00
55217;BME280;41086;46.736;15.666;2023-02-28T01:59:43;99429.00;;;-1.37;100.00
55217;BME280;41086;46.736;15.666;2023-02-28T02:02:17;99432.47;;;-1.36;100.00
55217;BME280;41086;46.736;15.666;2023-02-28T02:05:05;99422.94;;;-1.32;100.00
55217;BME280;41086;46.736;15.666;2023-02-28T02:07:36;99421.25;;;-1.38;100.00
55217;BME280;41086;46.736;15.666;2023-02-28T02:15:16;99418.63;;;-1.35;100.00
55217;BME280;41086;46.736;15.666;2023-02-28T02:17:53;99418.63;;;-1.35;100.00
55217;BME280;41086;46.736;15.666;2023-02-28T02:36:27;99441.97;;;-1.24;100.00
55217;BME280;41086;46.736;15.666;2023-02-28T02:39:14;99431.56;;;-1.26;100.00
55217;BME280;41086;46.736;15.666;2023-02-28T02:41:51;99435.06;;;-1.30;100.00
55217;BME280;41086;46.736;15.666;2023-02-28T02:44:41;99418.63;;;-1.35;100.00
55217;BME280;41086;46.736;15.666;2023-02-28T02:47:14;99438.50;;;-1.28;100.00
55217;BME280;41086;46.736;15.666;2023-02-28T02:49:46;99431.59;;;-1.29;100.00
55217;BME280;41086;46.736;15.666;2023-02-28T02:52:18;99429.88;;;-1.30;100.00
55217;BME280;41086;46.736;15.666;2023-02-28T02:54:48;99423.78;;;-1.30;100.00
55217;BME280;41086;46.736;15.666;2023-02-28T02:57:23;99415.16;;;-1.37;100.00
55217;BME280;41086;46.736;15.666;2023-02-28T02:59:53;99424.66;;;-1.31;100.00
55217;BME280;41086;46.736;15.666;2023-02-28T03:02:21;99422.91;;;-1.31;100.00
55217;BME280;41086;46.736;15.666;2023-02-28T03:05:00;99418.59;;;-1.34;100.00
55217;BME280;41086;46.736;15.666;2023-02-28T03:07:29;99424.66;;;-1.30;100.00
55217;BME280;41086;46.736;15.666;2023-02-28T03:09:57;99434.19;;;-1.27;100.00
55217;BME280;41086;46.736;15.666;2023-02-28T03:12:33;99434.13;;;-1.23;100.00
55217;BME280;41086;46.736;15.666;2023-02-28T03:15:32;99431.59;;;-1.27;100.00
55217;BME280;41086;46.736;15.666;2023-02-28T03:18:08;99431.56;;;-1.26;100.00
55217;BME280;41086;46.736;15.666;2023-02-28T03:21:05;99413.41;;;-1.37;100.00
55217;BME280;41086;46.736;15.666;2023-02-28T03:23:56;99432.41;;;-1.25;100.00
55217;BME280;41086;46.736;15.666;2023-02-28T03:26:27;99428.13;;;-1.29;100.00
55217;BME280;41086;46.736;15.666;2023-02-28T03:31:59;99432.47;;;-1.30;100.00
55217;BME280;41086;46.736;15.666;2023-02-28T03:34:38;99421.25;;;-1.40;100.00
55217;BME280;41086;46.736;15.666;2023-02-28T03:37:16;99423.84;;;-1.38;100.00
55217;BME280;41086;46.736;15.666;2023-02-28T03:40:08;99437.66;;;-1.31;100.00
55217;BME280;41086;46.736;15.666;2023-02-28T03:42:42;99439.38;;;-1.29;100.00
55217;BME280;41086;46.736;15.666;2023-02-28T03:45:13;99429.84;;;-1.31;100.00
55217;BME280;41086;46.736;15.666;2023-02-28T03:47:50;99441.97;;;-1.24;100.00
55217;BME280;41086;46.736;15.666;2023-02-28T03:50:20;99448.91;;;-1.25;100.00
55217;BME280;41086;46.736;15.666;2023-02-28T03:55:36;99455.81;;;-1.22;100.00
55217;BME280;41086;46.736;15.666;2023-02-28T03:58:26;99457.53;;;-1.20;100.00
55217;BME280;41086;46.736;15.666;2023-02-28T04:01:00;99454.94;;;-1.23;100.00
55217;BME280;41086;46.736;15.666;2023-02-28T04:03:36;99445.44;;;-1.27;100.00
55217;BME280;41086;46.736;15.666;2023-02-28T04:06:04;99461.81;;;-1.14;100.00
55217;BME280;41086;46.736;15.666;2023-02-28T04:08:32;99462.69;;;-1.12;100.00
55217;BME280;41086;46.736;15.666;2023-02-28T04:11:13;99447.94;;;-1.12;100.00
55217;BME280;41086;46.736;15.666;2023-02-28T04:13:43;99462.66;;;-1.06;100.00
55217;BME280;41086;46.736;15.666;2023-02-28T04:16:13;99458.31;;;-1.04;100.00
55217;BME280;41086;46.736;15.666;2023-02-28T04:18:58;99461.78;;;-1.00;100.00
55217;BME280;41086;46.736;15.666;2023-02-28T04:21:29;99465.22;;;-0.98;100.00
55217;BME280;41086;46.736;15.666;2023-02-28T04:23:57;99471.28;;;-0.96;100.00
55217;BME280;41086;46.736;15.666;2023-02-28T04:26:35;99460.88;;;-0.95;100.00
55217;BME280;41086;46.736;15.666;2023-02-28T04:29:05;99464.31;;;-0.94;100.00
55217;BME280;41086;46.736;15.666;2023-02-28T04:31:32;99438.41;;;-1.08;100.00
55217;BME280;41086;46.736;15.666;2023-02-28T04:34:00;99454.81;;;-0.97;100.00
55217;BME280;41086;46.736;15.666;2023-02-28T04:36:27;99460.00;;;-0.98;100.00
55217;BME280;41086;46.736;15.666;2023-02-28T04:38:54;99457.44;;;-1.01;100.00
55217;BME280;41086;46.736;15.666;2023-02-28T04:41:21;99459.19;;;-1.05;100.00
55217;BME280;41086;46.736;15.666;2023-02-28T04:43:51;99455.75;;;-1.10;100.00
55217;BME280;41086;46.736;15.666;2023-02-28T04:46:19;99448.00;;;-1.16;100.00
55217;BME280;41086;46.736;15.666;2023-02-28T04:48:46;99435.88;;;-1.22;100.00
55217;BME280;41086;46.736;15.666;2023-02-28T04:51:14;99442.78;;;-1.22;100.00
55217;BME280;41086;46.736;15.666;2023-02-28T04:53:42;99448.00;;;-1.21;100.00
55217;BME280;41086;46.736;15.666;2023-02-28T04:56:12;99450.63;;;-1.24;100.00
55217;BME280;41086;46.736;15.666;2023-02-28T04:58:40;99448.91;;;-1.25;100.00
55217;BME280;41086;46.736;15.666;2023-02-28T05:03:43;99443.72;;;-1.25;100.00
55217;BME280;41086;46.736;15.666;2023-02-28T05:06:11;99448.03;;;-1.24;100.00
55217;BME280;41086;46.736;15.666;2023-02-28T05:08:39;99446.28;;;-1.23;100.00
55217;BME280;41086;46.736;15.666;2023-02-28T05:11:09;99448.88;;;-1.20;100.00
55217;BME280;41086;46.736;15.666;2023-02-28T05:13:38;99457.56;;;-1.21;100.00
55217;BME280;41086;46.736;15.666;2023-02-28T05:16:05;99462.72;;;-1.18;100.00
55217;BME280;41086;46.736;15.666;2023-02-28T05:18:32;99456.66;;;-1.17;100.00
55217;BME280;41086;46.736;15.666;2023-02-28T05:20:59;99458.38;;;-1.18;100.00
55217;BME280;41086;46.736;15.666;2023-02-28T05:23:29;99466.16;;;-1.15;100.00
55217;BME280;41086;46.736;15.666;2023-02-28T05:25:55;99474.00;;;-1.18;100.00
55217;BME280;41086;46.736;15.666;2023-02-28T05:28:22;99465.34;;;-1.21;100.00
55217;BME280;41086;46.736;15.666;2023-02-28T05:30:49;99473.16;;;-1.17;100.00
55217;BME280;41086;46.736;15.666;2023-02-28T05:33:16;99467.91;;;-1.14;100.00
55217;BME280;41086;46.736;15.666;2023-02-28T05:35:43;99472.25;;;-1.13;100.00
55217;BME280;41086;46.736;15.666;2023-02-28T05:38:09;99476.56;;;-1.08;100.00
55217;BME280;41086;46.736;15.666;2023-02-28T05:40:38;99481.75;;;-1.05;100.00
55217;BME280;41086;46.736;15.666;2023-02-28T05:43:09;99493.00;;;-1.05;100.00
55217;BME280;41086;46.736;15.666;2023-02-28T05:45:36;99482.59;;;-1.03;100.00
55217;BME280;41086;46.736;15.666;2023-02-28T05:48:03;99490.41;;;-1.02;100.00
55217;BME280;41086;46.736;15.666;2023-02-28T05:50:30;99487.78;;;-0.99;100.00
55217;BME280;41086;46.736;15.666;2023-02-28T05:52:57;99492.09;;;-0.96;100.00
55217;BME280;41086;46.736;15.666;2023-02-28T05:55:23;99489.47;;;-0.93;100.00
55217;BME280;41086;46.736;15.666;2023-02-28T05:57:50;99498.16;;;-0.90;100.00
55217;BME280;41086;46.736;15.666;2023-02-28T06:00:17;99502.47;;;-0.92;100.00
55217;BME280;41086;46.736;15.666;2023-02-28T06:02:44;99501.63;;;-0.92;100.00
55217;BME280;41086;46.736;15.666;2023-02-28T06:05:17;99510.28;;;-0.92;100.00
55217;BME280;41086;46.736;15.666;2023-02-28T06:07:44;99508.53;;;-0.91;100.00
55217;BME280;41086;46.736;15.666;2023-02-28T06:10:11;99504.22;;;-0.95;100.00
55217;BME280;41086;46.736;15.666;2023-02-28T06:12:38;99508.53;;;-0.88;100.00
55217;BME280;41086;46.736;15.666;2023-02-28T06:15:05;99518.06;;;-0.85;100.00
55217;BME280;41086;46.736;15.666;2023-02-28T06:17:32;99518.06;;;-0.84;100.00
55217;BME280;41086;46.736;15.666;2023-02-28T06:19:58;99521.50;;;-0.80;100.00
55217;BME280;41086;46.736;15.666;2023-02-28T06:22:25;99521.47;;;-0.79;100.00
55217;BME280;41086;46.736;15.666;2023-02-28T06:24:52;99524.09;;;-0.76;100.00
55217;BME280;41086;46.736;15.666;2023-02-28T06:27:19;99522.34;;;-0.78;100.00
55217;BME280;41086;46.736;15.666;2023-02-28T06:29:47;99522.38;;;-0.83;100.00
55217;BME280;41086;46.736;15.666;2023-02-28T06:32:14;99536.28;;;-0.85;100.00
55217;BME280;41086;46.736;15.666;2023-02-28T06:34:40;99531.94;;;-0.86;100.00
55217;BME280;41086;46.736;15.666;2023-02-28T06:37:07;99537.09;;;-0.82;100.00
55217;BME280;41086;46.736;15.666;2023-02-28T06:39:34;99539.69;;;-0.79;100.00
55217;BME280;41086;46.736;15.666;2023-02-28T06:42:01;99531.06;;;-0.81;100.00
55217;BME280;41086;46.736;15.666;2023-02-28T06:44:27;99544.94;;;-0.80;100.00
55217;BME280;41086;46.736;15.666;2023-02-28T06:47:02;99547.53;;;-0.82;100.00
55217;BME280;41086;46.736;15.666;2023-02-28T06:49:31;99544.94;;;-0.83;100.00
55217;BME280;41086;46.736;15.666;2023-02-28T06:51:58;99551.00;;;-0.84;100.00
55217;BME280;41086;46.736;15.666;2023-02-28T06:54:25;99550.16;;;-0.83;100.00
55217;BME280;41086;46.736;15.666;2023-02-28T06:56:52;99549.28;;;-0.84;100.00
55217;BME280;41086;46.736;15.666;2023-02-28T06:59:20;99559.69;;;-0.82;100.00
55217;BME280;41086;46.736;15.666;2023-02-28T07:01:47;99562.28;;;-0.82;100.00
55217;BME280;41086;46.736;15.666;2023-02-28T07:04:14;99555.31;;;-0.79;100.00
55217;BME280;41086;46.736;15.666;2023-02-28T07:06:41;99565.75;;;-0.80;100.00
55217;BME280;41086;46.736;15.666;2023-02-28T07:09:08;99559.63;;;-0.76;100.00
55217;BME280;41086;46.736;15.666;2023-02-28T07:11:34;99569.22;;;-0.81;100.00
55217;BME280;41086;46.736;15.666;2023-02-28T07:14:01;99563.16;;;-0.80;100.00
55217;BME280;41086;46.736;15.666;2023-02-28T07:16:28;99570.97;;;-0.83;100.00
55217;BME280;41086;46.736;15.666;2023-02-28T07:18:55;99569.22;;;-0.81;100.00
55217;BME280;41086;46.736;15.666;2023-02-28T07:21:22;99565.75;;;-0.85;100.00
55217;BME280;41086;46.736;15.666;2023-02-28T07:23:49;99569.22;;;-0.80;100.00
55217;BME280;41086;46.736;15.666;2023-02-28T07:26:17;99564.84;;;-0.75;100.00
55217;BME280;41086;46.736;15.666;2023-02-28T07:28:46;99570.88;;;-0.71;100.00
55217;BME280;41086;46.736;15.666;2023-02-28T07:31:14;99546.63;;;-0.79;100.00
55217;BME280;41086;46.736;15.666;2023-02-28T07:33:41;99562.19;;;-0.67;100.00
55217;BME280;41086;46.736;15.666;2023-02-28T07:36:12;99568.25;;;-0.62;100.00
55217;BME280;41086;46.736;15.666;2023-02-28T07:38:43;99567.38;;;-0.61;100.00
55217;BME280;41086;46.736;15.666;2023-02-28T07:41:16;99549.22;;;-0.73;100.00
55217;BME280;41086;46.736;15.666;2023-02-28T07:43:43;99575.13;;;-0.55;100.00
55217;BME280;41086;46.736;15.666;2023-02-28T07:46:13;99571.66;;;-0.52;100.00
55217;BME280;41086;46.736;15.666;2023-02-28T07:48:44;99575.13;;;-0.49;100.00
55217;BME280;41086;46.736;15.666;2023-02-28T07:51:11;99572.50;;;-0.46;100.00
55217;BME280;41086;46.736;15.666;2023-02-28T07:53:37;99580.25;;;-0.41;100.00
55217;BME280;41086;46.736;15.666;2023-02-28T07:56:04;99585.47;;;-0.38;100.00
55217;BME280;41086;46.736;15.666;2023-02-28T07:58:31;99582.81;;;-0.36;100.00
55217;BME280;41086;46.736;15.666;2023-02-28T08:01:05;99583.69;;;-0.34;100.00
55217;BME280;41086;46.736;15.666;2023-02-28T08:03:32;99569.00;;;-0.43;100.00
55217;BME280;41086;46.736;15.666;2023-02-28T08:05:59;99591.47;;;-0.30;100.00
55217;BME280;41086;46.736;15.666;2023-02-28T08:08:25;99566.34;;;-0.38;100.00
55217;BME280;41086;46.736;15.666;2023-02-28T08:10:57;99592.28;;;-0.23;100.00
55217;BME280;41086;46.736;15.666;2023-02-28T08:13:24;99595.81;;;-0.27;100.00
55217;BME280;41086;46.736;15.666;2023-02-28T08:15:51;99596.69;;;-0.31;100.00
55217;BME280;41086;46.736;15.666;2023-02-28T08:18:17;99599.28;;;-0.31;100.00
55217;BME280;41086;46.736;15.666;2023-02-28T08:20:44;99598.44;;;-0.32;100.00
55217;BME280;41086;46.736;15.666;2023-02-28T08:23:11;99601.06;;;-0.35;100.00
55217;BME280;41086;46.736;15.666;2023-02-28T08:25:38;99597.63;;;-0.41;100.00
55217;BME280;41086;46.736;15.666;2023-02-28T08:28:04;99596.75;;;-0.37;100.00
55217;BME280;41086;46.736;15.666;2023-02-28T08:30:31;99595.84;;;-0.35;100.00
55217;BME280;41086;46.736;15.666;2023-02-28T08:32:58;99601.00;;;-0.30;100.00
55217;BME280;41086;46.736;15.666;2023-02-28T08:35:25;99601.84;;;-0.24;100.00
55217;BME280;41086;46.736;15.666;2023-02-28T08:37:52;99599.25;;;-0.25;100.00
55217;BME280;41086;46.736;15.666;2023-02-28T08:40:19;99602.66;;;-0.17;100.00
55217;BME280;41086;46.736;15.666;2023-02-28T08:42:46;99599.13;;;-0.08;100.00
55217;BME280;41086;46.736;15.666;2023-02-28T08:45:13;99605.16;;;0.00;100.00
55217;BME280;41086;46.736;15.666;2023-02-28T08:47:40;99605.97;;;0.08;100.00
55217;BME280;41086;46.736;15.666;2023-02-28T08:50:07;99612.00;;;0.10;100.00
55217;BME280;41086;46.736;15.666;2023-02-28T08:52:34;99595.56;;;0.04;100.00
55217;BME280;41086;46.736;15.666;2023-02-28T08:55:01;99611.09;;;0.16;100.00
55217;BME280;41086;46.736;15.666;2023-02-28T08:57:28;99611.91;;;0.22;100.00
55217;BME280;41086;46.736;15.666;2023-02-28T08:59:54;99617.09;;;0.26;100.00
55217;BME280;41086;46.736;15.666;2023-02-28T09:02:21;99614.50;;;0.26;100.00
55217;BME280;41086;46.736;15.666;2023-02-28T09:04:48;99613.56;;;0.31;100.00
55217;BME280;41086;46.736;15.666;2023-02-28T09:07:15;99615.28;;;0.35;100.00
55217;BME280;41086;46.736;15.666;2023-02-28T09:09:41;99612.63;;;0.40;100.00
55217;BME280;41086;46.736;15.666;2023-02-28T09:12:27;99612.59;;;0.44;100.00
55217;BME280;41086;46.736;15.666;2023-02-28T09:14:54;99616.00;;;0.50;100.00
55217;BME280;41086;46.736;15.666;2023-02-28T09:17:20;99615.13;;;0.51;100.00
55217;BME280;41086;46.736;15.666;2023-02-28T09:19:48;99610.75;;;0.51;100.00
55217;BME280;41086;46.736;15.666;2023-02-28T09:22:16;99613.34;;;0.54;100.00
55217;BME280;41086;46.736;15.666;2023-02-28T09:24:43;99608.97;;;0.58;100.00
55217;BME280;41086;46.736;15.666;2023-02-28T09:27:11;99612.41;;;0.63;100.00
55217;BME280;41086;46.736;15.666;2023-02-28T09:29:38;99601.19;;;0.53;100.00
55217;BME280;41086;46.736;15.666;2023-02-28T09:32:05;99604.59;;;0.63;100.00
55217;BME280;41086;46.736;15.666;2023-02-28T09:34:32;99617.50;;;0.72;100.00
55217;BME280;41086;46.736;15.666;2023-02-28T09:36:59;99618.34;;;0.79;100.00
55217;BME280;41086;46.736;15.666;2023-02-28T09:39:26;99613.91;;;0.85;100.00
55217;BME280;41086;46.736;15.666;2023-02-28T09:41:54;99611.28;;;0.87;100.00
55217;BME280;41086;46.736;15.666;2023-02-28T09:44:37;99621.69;;;0.90;100.00
55217;BME280;41086;46.736;15.666;2023-02-28T09:49:57;99618.19;;;0.89;100.00
55217;BME280;41086;46.736;15.666;2023-02-28T09:52:29;99611.31;;;0.82;100.00
55217;BME280;41086;46.736;15.666;2023-02-28T09:57:45;99618.13;;;0.94;100.00
55217;BME280;41086;46.736;15.666;2023-02-28T10:00:22;99618.09;;;0.97;100.00
55217;BME280;41086;46.736;15.666;2023-02-28T10:03:24;99613.69;;;1.02;100.00
55217;BME280;41086;46.736;15.666;2023-02-28T10:05:58;99609.31;;;1.04;100.00
55217;BME280;41086;46.736;15.666;2023-02-28T10:08:31;99609.31;;;1.04;100.00
55217;BME280;41086;46.736;15.666;2023-02-28T10:11:06;99612.78;;;1.06;100.00
55217;BME280;41086;46.736;15.666;2023-02-28T10:13:35;99613.59;;;1.12;100.00
55217;BME280;41086;46.736;15.666;2023-02-28T10:16:09;99609.06;;;1.24;100.00
55217;BME280;41086;46.736;15.666;2023-02-28T10:18:42;99612.47;;;1.31;100.00
55217;BME280;41086;46.736;15.666;2023-02-28T10:21:21;99614.19;;;1.33;100.00
55217;BME280;41086;46.736;15.666;2023-02-28T10:23:48;99616.72;;;1.41;100.00
55217;BME280;41086;46.736;15.666;2023-02-28T10:26:17;99613.25;;;1.38;100.00
55217;BME280;41086;46.736;15.666;2023-02-28T10:28:44;99615.00;;;1.39;100.00
55217;BME280;41086;46.736;15.666;2023-02-28T10:31:18;99618.31;;;1.48;100.00
55217;BME280;41086;46.736;15.666;2023-02-28T10:33:46;99608.25;;;1.21;100.00
55217;BME280;41086;46.736;15.666;2023-02-28T10:36:16;99602.69;;;0.76;100.00
55217;BME280;41086;46.736;15.666;2023-02-28T10:38:44;99606.44;;;0.50;100.00
55217;BME280;41086;46.736;15.666;2023-02-28T10:41:13;99604.63;;;0.58;100.00
55217;BME280;41086;46.736;15.666;2023-02-28T10:43:43;99603.44;;;0.87;100.00
55217;BME280;41086;46.736;15.666;2023-02-28T10:46:15;99599.00;;;0.95;100.00
55217;BME280;41086;46.736;15.666;2023-02-28T10:49:03;99597.94;;;1.12;100.00
55217;BME280;41086;46.736;15.666;2023-02-28T10:51:39;99590.19;;;1.04;100.00
55217;BME280;41086;46.736;15.666;2023-02-28T10:54:16;99598.88;;;1.03;100.00
55217;BME280;41086;46.736;15.666;2023-02-28T10:56:43;99603.03;;;1.21;100.00
55217;BME280;41086;46.736;15.666;2023-02-28T10:59:27;99596.66;;;1.40;100.00
55217;BME280;41086;46.736;15.666;2023-02-28T11:01:54;99587.97;;;1.38;100.00
55217;BME280;41086;46.736;15.666;2023-02-28T11:06:58;99579.03;;;1.58;100.00
55217;BME280;41086;46.736;15.666;2023-02-28T11:09:34;99582.34;;;1.69;100.00
55217;BME280;41086;46.736;15.666;2023-02-28T11:12:04;99582.25;;;1.73;100.00
55217;BME280;41086;46.736;15.666;2023-02-28T11:14:37;99577.91;;;1.72;100.00
55217;BME280;41086;46.736;15.666;2023-02-28T11:17:26;99558.88;;;1.63;100.00
55217;BME280;41086;46.736;15.666;2023-02-28T11:19:57;99573.06;;;1.48;100.00
55217;BME280;41086;46.736;15.666;2023-02-28T11:22:27;99574.75;;;1.50;100.00
55217;BME280;41086;46.736;15.666;2023-02-28T11:25:15;99565.97;;;1.58;100.00
55217;BME280;41086;46.736;15.666;2023-02-28T11:27:47;99577.81;;;1.80;100.00
55217;BME280;41086;46.736;15.666;2023-02-28T11:30:35;99556.06;;;1.78;100.00
55217;BME280;41086;46.736;15.666;2023-02-28T11:33:29;99562.19;;;1.77;100.00
55217;BME280;41086;46.736;15.666;2023-02-28T11:36:13;99574.22;;;1.28;100.00
55217;BME280;41086;46.736;15.666;2023-02-28T11:38:41;99566.28;;;1.35;100.00
55217;BME280;41086;46.736;15.666;2023-02-28T11:41:12;99563.47;;;1.50;100.00
55217;BME280;41086;46.736;15.666;2023-02-28T11:49:06;99558.66;;;1.80;100.00
55217;BME280;41086;46.736;15.666;2023-02-28T11:51:48;99559.56;;;1.77;100.00
55217;BME280;41086;46.736;15.666;2023-02-28T12:00:19;99552.53;;;1.79;100.00
55217;BME280;41086;46.736;15.666;2023-02-28T12:05:41;99545.00;;;1.61;100.00
55217;BME280;41086;46.736;15.666;2023-02-28T12:28:29;99525.44;;;2.79;100.00
55217;BME280;41086;46.736;15.666;2023-02-28T12:31:05;99515.13;;;3.12;100.00
55217;BME280;41086;46.736;15.666;2023-02-28T12:33:40;99520.09;;;3.63;100.00
55217;BME280;41086;46.736;15.666;2023-02-28T12:36:11;99508.44;;;4.11;100.00
55217;BME280;41086;46.736;15.666;2023-02-28T12:38:56;99508.31;;;4.15;100.00
55217;BME280;41086;46.736;15.666;2023-02-28T12:44:11;99505.28;;;4.93;94.16
55217;BME280;41086;46.736;15.666;2023-02-28T12:46:42;99503.75;;;4.55;93.32
55217;BME280;41086;46.736;15.666;2023-02-28T12:49:17;99493.25;;;4.22;96.80
55217;BME280;41086;46.736;15.666;2023-02-28T12:51:46;99495.72;;;4.28;99.23
55217;BME280;41086;46.736;15.666;2023-02-28T12:57:36;99489.09;;;5.07;92.15
55217;BME280;41086;46.736;15.666;2023-02-28T13:00:13;99496.22;;;5.31;90.91
55217;BME280;41086;46.736;15.666;2023-02-28T13:10:49;99476.59;;;3.56;94.19
55217;BME280;41086;46.736;15.666;2023-02-28T13:13:23;99481.91;;;3.87;95.58
55217;BME280;41086;46.736;15.666;2023-02-28T13:16:10;99476.69;;;4.20;93.92
55217;BME280;41086;46.736;15.666;2023-02-28T13:18:39;99470.28;;;4.32;89.09
55217;BME280;41086;46.736;15.666;2023-02-28T13:21:32;99463.72;;;4.47;89.47
55217;BME280;41086;46.736;15.666;2023-02-28T13:23:59;99464.88;;;4.68;86.76
55217;BME280;41086;46.736;15.666;2023-02-28T13:34:28;99461.22;;;4.11;98.42
55217;BME280;41086;46.736;15.666;2023-02-28T13:40:36;99433.47;;;4.64;82.13
55217;BME280;41086;46.736;15.666;2023-02-28T13:43:07;99451.28;;;4.83;76.51
55217;BME280;41086;46.736;15.666;2023-02-28T13:45:35;99452.72;;;4.63;72.64
55217;BME280;41086;46.736;15.666;2023-02-28T13:48:18;99447.56;;;4.90;76.24
55217;BME280;41086;46.736;15.666;2023-02-28T13:50:45;99443.25;;;5.17;79.41
55217;BME280;41086;46.736;15.666;2023-02-28T13:56:03;99445.16;;;4.53;88.67
55217;BME280;41086;46.736;15.666;2023-02-28T14:07:06;99439.34;;;3.42;94.80
55217;BME280;41086;46.736;15.666;2023-02-28T14:09:38;99444.91;;;3.29;97.96
55217;BME280;41086;46.736;15.666;2023-02-28T14:15:57;99438.69;;;3.33;93.40
55217;BME280;41086;46.736;15.666;2023-02-28T14:18:32;99431.03;;;3.62;95.27
55217;BME280;41086;46.736;15.666;2023-02-28T14:21:32;99435.75;;;3.82;89.89
55217;BME280;41086;46.736;15.666;2023-02-28T14:30:10;99429.75;;;4.09;82.13
55217;BME280;41086;46.736;15.666;2023-02-28T14:32:51;99427.66;;;4.22;84.91
55217;BME280;41086;46.736;15.666;2023-02-28T14:38:14;99427.97;;;3.78;84.74
55217;BME280;41086;46.736;15.666;2023-02-28T14:40:44;99431.53;;;3.76;83.42
55217;BME280;41086;46.736;15.666;2023-02-28T14:43:21;99429.06;;;3.70;86.08
55217;BME280;41086;46.736;15.666;2023-02-28T14:45:51;99433.09;;;3.83;85.84
55217;BME280;41086;46.736;15.666;2023-02-28T14:48:19;99438.19;;;3.88;85.54
55217;BME280;41086;46.736;15.666;2023-02-28T14:50:56;99431.06;;;3.93;85.62
55217;BME280;41086;46.736;15.666;2023-02-28T14:53:27;99427.50;;;3.95;85.02
55217;BME280;41086;46.736;15.666;2023-02-28T14:55:55;99422.97;;;4.02;86.97
55217;BME280;41086;46.736;15.666;2023-02-28T14:58:30;99417.66;;;4.05;87.97
55217;BME280;41086;46.736;15.666;2023-02-28T15:01:02;99404.69;;;3.99;87.82
55217;BME280;41086;46.736;15.666;2023-02-28T15:03:38;99423.78;;;4.04;88.21
55217;BME280;41086;46.736;15.666;2023-02-28T15:06:13;99419.53;;;4.00;85.43